• Join FlightAware (Why Join?)
  • Login
  • US Flag 
 
07:07PM EST


 

Airport Tracker/Info


-or-


 

Live Flight TrackerFlight Track Log ✈ N785JP ✈ 26-Jun-2013 ✈ 5B2 - KSYR

Flight Track Log - Related Links

Times and Time Zones

All times are in EDT time to prevent confusion due to time zone crossing. See the N785JP flight status page for this flight to view local times or setup timezone preferences in your user account.

Time Position Orientation Groundspeed Altitude Reporting Facility
EDT Latitude Longitude Course Direction KTS MPH feet Rate Location/Type
06:17AM 43.0222 -73.9169 264° West 141 162 2,000  Level Boston Center
06:18AM 43.0172 -73.9819 264° West 139 160 3,500 1,080 Climbing Boston Center
06:19AM 43.0186 -74.0389 272° West 145 167 4,600 1,080 Climbing Boston Center
06:20AM 43.0197 -74.0986 271° West 149 171 5,700 1,020 Climbing Boston Center
06:21AM 43.0189 -74.1553 269° West 153 176 6,700 720 Climbing Boston Center
06:22AM 43.0200 -74.2206 271° West 182 209 7,200 780 Climbing Boston Center
06:23AM 43.0211 -74.2861 271° West 176 203 8,300 1,080 Climbing Boston Center
06:24AM 43.0222 -74.3458 271° West 158 182 9,400 840 Climbing Boston Center
06:25AM 43.0233 -74.3997 272° West 154 177 10,000 300 Climbing Boston Center
06:26AM 43.0242 -74.4708 271° West 199 229 10,000  Level Boston Center
06:27AM 43.0247 -74.5589 271° West 216 249 10,000  Level Boston Center
06:28AM 43.0275 -74.6356 273° West 214 246 10,000  Level Boston Center
06:29AM 43.0278 -74.7181 270° West 211 243 10,000  Level Boston Center
06:30AM 43.0242 -74.7975 266° West 213 245 10,000  Level Boston Center
06:31AM 43.0264 -74.8856 272° West 211 243 10,000  Level Boston Center
06:32AM 43.0267 -74.9681 270° West 213 245 10,000  Level Boston Center
06:33AM 43.0269 -75.0503 270° West 210 242 10,000 -480 Level Boston Center
06:34AM 43.0272 -75.1328 270° West 223 257 9,100 -900 Descending Boston Center
06:35AM 43.0336 -75.2125 276° West 212 244 8,300 -720 Descending Boston Center
06:36AM 43.0464 -75.2869 283° West 197 227 7,700 -660 Descending Boston Center
06:37AM 43.0550 -75.3614 279° West 197 227 7,000 -840 Descending Boston Center
06:38AM 43.0633 -75.4356 279° West 201 231 6,100 -840 Descending Boston Center
06:39AM 43.0719 -75.5100 279° West 203 234 5,300 -780 Descending Boston Center
06:40AM 43.0842 -75.5931 281° West 204 235 4,600 -720 Descending Boston Center
06:41AM 43.0925 -75.6675 279° West 203 234 3,900 -600 Descending Boston Center
06:42AM 43.1011 -75.7303 281° West 194 223 3,500 -420 Descending Boston Center
06:43AM 43.1114 -75.8050 281° West 183 211 3,100 -240 Descending Boston Center
06:45AM 43.1156 -75.8792 274° West 162 186 3,000 -120 Descending Boston Center
06:46AM 43.1139 -75.9358 268° West 143 165 2,900 -480 Descending Boston Center
06:46AM 43.1122 -75.9842 267° West 144 166 2,100 -780 Descending Boston Center
06:47AM 43.1108 -76.0297 268° West 120 138 1,400 -660 Descending Boston Center
06:48AM 43.1094 -76.0781 268° West 114 131 800 -600 Descending Boston Center